createdAt,value
2022-10-16T00:01:14.210Z,15.00
2022-10-16T00:03:41.929Z,14.92
2022-10-16T00:06:09.952Z,14.83
2022-10-16T00:08:37.580Z,14.84
2022-10-16T00:11:05.808Z,14.82
2022-10-16T00:13:33.868Z,14.74
2022-10-16T00:16:01.952Z,14.83
2022-10-16T00:18:29.538Z,14.81
2022-10-16T00:20:57.447Z,14.74
2022-10-16T00:23:24.073Z,14.88
2022-10-16T00:25:58.850Z,14.72
2022-10-16T00:28:25.887Z,14.75
2022-10-16T00:30:52.501Z,14.77
2022-10-16T00:33:19.468Z,14.78
2022-10-16T00:35:46.158Z,14.82
2022-10-16T00:38:12.801Z,14.84
2022-10-16T00:40:39.940Z,14.73
2022-10-16T00:43:38.796Z,14.63
2022-10-16T00:46:14.580Z,14.77
2022-10-16T00:48:41.849Z,14.72
2022-10-16T00:51:08.575Z,14.62
2022-10-16T00:53:36.528Z,14.60
2022-10-16T00:56:04.190Z,14.55
2022-10-16T00:58:31.011Z,14.48
2022-10-16T01:00:57.688Z,14.69
2022-10-16T01:03:34.561Z,14.73
2022-10-16T01:09:05.369Z,14.89
2022-10-16T01:11:45.057Z,14.96
2022-10-16T01:14:38.473Z,14.93
2022-10-16T01:17:14.744Z,14.99
2022-10-16T01:20:08.775Z,15.06
2022-10-16T01:22:59.390Z,15.06
2022-10-16T01:25:46.302Z,15.10
2022-10-16T01:28:15.824Z,15.16
2022-10-16T01:30:45.304Z,15.12
2022-10-16T01:33:22.624Z,15.27
2022-10-16T01:35:54.123Z,15.36
2022-10-16T01:38:36.251Z,15.24
2022-10-16T01:41:12.181Z,15.25
2022-10-16T01:43:49.351Z,15.31
2022-10-16T01:46:20.478Z,15.40
2022-10-16T01:48:48.590Z,15.21
2022-10-16T01:51:17.657Z,15.35
2022-10-16T01:53:48.634Z,15.36
2022-10-16T01:56:18.440Z,15.35
2022-10-16T01:59:14.199Z,15.38
2022-10-16T02:01:46.277Z,15.28
2022-10-16T02:04:38.736Z,15.24
2022-10-16T02:07:06.480Z,15.33
2022-10-16T02:09:35.650Z,15.48
2022-10-16T02:12:07.775Z,15.59
2022-10-16T02:14:34.345Z,15.54
2022-10-16T02:17:00.928Z,15.60
2022-10-16T02:19:27.843Z,15.60
2022-10-16T02:22:00.993Z,15.60
2022-10-16T02:24:49.188Z,15.67
2022-10-16T02:27:38.553Z,15.65
2022-10-16T02:30:15.710Z,15.54
2022-10-16T02:32:47.046Z,15.54
2022-10-16T02:35:15.145Z,15.63
2022-10-16T02:37:42.827Z,15.58
2022-10-16T02:40:09.994Z,15.58
2022-10-16T02:42:39.178Z,15.52
2022-10-16T02:45:07.433Z,15.41
2022-10-16T02:47:34.351Z,15.44
2022-10-16T02:50:01.253Z,15.45
2022-10-16T02:52:28.409Z,15.38
2022-10-16T02:54:55.180Z,15.34
2022-10-16T02:57:21.711Z,15.35
2022-10-16T02:59:48.409Z,15.25
2022-10-16T03:02:15.275Z,15.23
2022-10-16T03:04:41.814Z,15.22
2022-10-16T03:07:08.724Z,15.17
2022-10-16T03:09:35.330Z,15.06
2022-10-16T03:12:01.961Z,15.06
2022-10-16T03:17:00.015Z,15.01
2022-10-16T03:19:26.568Z,15.12
2022-10-16T03:21:53.114Z,14.99
2022-10-16T03:24:19.876Z,14.87
2022-10-16T03:26:46.484Z,14.86
2022-10-16T03:29:13.102Z,14.94
2022-10-16T03:31:39.670Z,14.64
2022-10-16T03:34:06.421Z,14.82
2022-10-16T03:36:33.046Z,14.74
2022-10-16T03:38:59.617Z,14.66
2022-10-16T03:41:26.267Z,14.72
2022-10-16T03:43:53.138Z,14.69
2022-10-16T03:46:19.857Z,14.66
2022-10-16T03:48:46.623Z,14.76
2022-10-16T03:51:13.206Z,14.86
2022-10-16T03:53:40.029Z,14.91
2022-10-16T03:56:07.147Z,14.84
2022-10-16T03:58:33.748Z,14.92
2022-10-16T04:01:00.347Z,14.92
2022-10-16T04:03:27.081Z,14.72
2022-10-16T04:05:53.630Z,14.71
2022-10-16T04:08:20.118Z,14.63
2022-10-16T04:10:46.727Z,14.61
2022-10-16T04:13:13.723Z,14.40
2022-10-16T04:15:40.788Z,14.31
2022-10-16T04:18:07.941Z,14.24
2022-10-16T04:20:34.991Z,14.30
2022-10-16T04:23:02.026Z,14.22
2022-10-16T04:25:28.599Z,14.32
2022-10-16T04:27:55.553Z,14.34
2022-10-16T04:30:23.106Z,14.52
2022-10-16T04:32:51.247Z,14.58
2022-10-16T04:35:19.081Z,14.74
2022-10-16T04:37:46.079Z,14.73
2022-10-16T04:40:13.138Z,14.81
2022-10-16T04:42:39.962Z,14.80
2022-10-16T04:45:07.318Z,14.74
2022-10-16T04:47:33.955Z,14.74
2022-10-16T04:50:02.187Z,14.65
2022-10-16T04:52:29.263Z,14.55
2022-10-16T04:54:57.505Z,14.64
2022-10-16T04:57:24.339Z,14.52
2022-10-16T04:59:51.157Z,14.54
2022-10-16T05:02:17.739Z,14.63
2022-10-16T05:04:44.393Z,14.61
2022-10-16T05:07:11.021Z,14.64
2022-10-16T05:09:37.598Z,14.54
2022-10-16T05:12:04.548Z,14.45
2022-10-16T05:14:31.339Z,14.56
2022-10-16T05:16:58.240Z,14.33
2022-10-16T05:19:28.520Z,14.47
2022-10-16T05:21:56.105Z,14.65
2022-10-16T05:24:22.761Z,14.72
2022-10-16T05:26:49.524Z,14.68
2022-10-16T05:29:16.185Z,14.56
2022-10-16T05:31:42.956Z,14.55
2022-10-16T05:34:09.728Z,14.54
2022-10-16T05:36:36.638Z,14.53
2022-10-16T05:39:03.926Z,14.48
2022-10-16T05:41:30.559Z,14.54
2022-10-16T05:43:57.085Z,14.52
2022-10-16T05:46:23.715Z,14.14
2022-10-16T05:48:53.568Z,14.17
2022-10-16T05:51:20.205Z,14.28
2022-10-16T05:53:46.830Z,14.24
2022-10-16T05:56:13.877Z,14.22
2022-10-16T05:58:41.617Z,14.33
2022-10-16T06:01:15.462Z,14.19
2022-10-16T06:03:42.226Z,14.24
2022-10-16T06:06:12.323Z,14.17
2022-10-16T06:08:40.492Z,14.22
2022-10-16T06:11:10.502Z,14.22
2022-10-16T06:13:37.405Z,14.23
2022-10-16T06:16:05.192Z,14.09
2022-10-16T06:18:32.180Z,14.07
2022-10-16T06:20:59.923Z,13.99
2022-10-16T06:23:29.679Z,14.02
2022-10-16T06:26:05.613Z,14.19
2022-10-16T06:28:32.331Z,14.38
2022-10-16T06:31:07.268Z,14.65
2022-10-16T06:33:36.054Z,14.91
2022-10-16T06:36:09.340Z,15.00
2022-10-16T06:38:36.674Z,14.95
2022-10-16T06:41:03.770Z,15.06
2022-10-16T06:43:36.170Z,15.15
2022-10-16T06:46:04.711Z,15.26
2022-10-16T06:48:31.866Z,15.47
2022-10-16T06:51:01.064Z,15.57
2022-10-16T06:53:36.034Z,15.76
2022-10-16T06:56:18.658Z,15.97
2022-10-16T06:58:45.774Z,16.13
2022-10-16T07:01:13.757Z,16.07
2022-10-16T07:03:42.122Z,16.13
2022-10-16T07:06:10.667Z,16.07
2022-10-16T07:08:39.858Z,16.07
2022-10-16T07:11:09.536Z,15.97
2022-10-16T07:13:37.471Z,16.10
2022-10-16T07:16:11.790Z,16.10
2022-10-16T07:18:40.116Z,16.19
2022-10-16T07:21:06.789Z,16.28
2022-10-16T07:23:33.420Z,16.33
2022-10-16T07:26:00.169Z,16.36
2022-10-16T07:28:27.227Z,16.43
2022-10-16T07:30:54.101Z,16.45
2022-10-16T07:33:20.800Z,16.42
2022-10-16T07:35:55.092Z,16.43
2022-10-16T07:38:22.689Z,16.47
2022-10-16T07:40:49.758Z,16.60
2022-10-16T07:43:16.362Z,16.69
2022-10-16T07:45:50.527Z,16.55
2022-10-16T07:48:18.486Z,16.63
2022-10-16T07:50:45.862Z,16.69
2022-10-16T07:53:12.855Z,16.74
2022-10-16T07:55:40.083Z,16.73
2022-10-16T07:58:07.725Z,16.73
2022-10-16T08:00:35.122Z,16.83
2022-10-16T08:03:01.691Z,16.79
2022-10-16T08:05:29.969Z,16.75
2022-10-16T08:07:57.119Z,16.89
2022-10-16T08:10:27.305Z,16.94
2022-10-16T08:12:54.241Z,16.99
2022-10-16T08:15:21.537Z,17.04
2022-10-16T08:17:59.605Z,17.13
2022-10-16T08:20:27.987Z,17.29
2022-10-16T08:22:55.395Z,17.23
2022-10-16T08:25:25.362Z,17.20
2022-10-16T08:27:52.487Z,17.21
2022-10-16T08:30:20.993Z,17.19
2022-10-16T08:32:47.709Z,17.23
2022-10-16T08:35:15.846Z,17.34
2022-10-16T08:37:42.892Z,17.58
2022-10-16T08:40:34.072Z,17.71
2022-10-16T08:43:36.249Z,18.01
2022-10-16T08:46:23.609Z,18.05
2022-10-16T08:48:53.042Z,18.14
2022-10-16T08:51:32.723Z,18.17
2022-10-16T08:54:25.210Z,18.42
2022-10-16T08:56:51.834Z,18.91
2022-10-16T08:59:20.226Z,19.31
2022-10-16T09:01:50.455Z,19.70
2022-10-16T09:04:46.005Z,20.81
2022-10-16T09:07:22.210Z,22.04
2022-10-16T09:10:02.143Z,23.03
2022-10-16T09:12:40.491Z,23.12
2022-10-16T09:15:25.631Z,22.85
2022-10-16T09:18:03.412Z,23.57
2022-10-16T09:20:50.179Z,23.88
2022-10-16T09:23:38.714Z,-146.37
2022-10-16T09:26:07.263Z,-146.37
2022-10-16T09:28:33.976Z,-146.37
2022-10-16T09:31:00.691Z,-146.37
2022-10-16T09:33:34.431Z,-146.37
2022-10-16T09:36:03.458Z,-146.37
2022-10-16T09:38:35.681Z,-146.37
2022-10-16T09:41:15.869Z,-146.37
2022-10-16T09:43:49.380Z,-146.37
2022-10-16T09:46:32.945Z,-146.37
2022-10-16T09:49:19.728Z,-146.37
2022-10-16T09:51:46.324Z,-146.37
2022-10-16T09:54:21.222Z,-146.37
2022-10-16T09:56:52.779Z,23.88
2022-10-16T09:59:22.222Z,22.03
2022-10-16T10:01:52.118Z,22.56
2022-10-16T10:04:21.385Z,23.09
2022-10-16T10:06:51.198Z,23.13
2022-10-16T10:09:25.840Z,22.95
2022-10-16T10:11:56.014Z,22.91
2022-10-16T10:14:30.226Z,22.87
2022-10-16T10:17:13.811Z,23.06
2022-10-16T10:20:03.306Z,23.27
2022-10-16T10:22:41.970Z,23.61
2022-10-16T10:25:17.323Z,23.71
2022-10-16T10:28:08.660Z,24.52
2022-10-16T10:30:53.794Z,25.03
2022-10-16T10:33:48.395Z,24.87
2022-10-16T10:36:30.271Z,24.86
2022-10-16T10:39:06.333Z,24.51
2022-10-16T10:41:39.067Z,24.17
2022-10-16T10:44:22.547Z,23.73
2022-10-16T10:46:58.170Z,23.12
2022-10-16T10:49:48.217Z,22.71
2022-10-16T10:52:51.217Z,22.41
2022-10-16T10:55:27.831Z,22.30
2022-10-16T10:58:22.475Z,21.98
2022-10-16T11:00:52.117Z,21.81
2022-10-16T11:03:46.159Z,21.72
2022-10-16T11:09:13.185Z,21.71
2022-10-16T11:11:46.407Z,21.68
2022-10-16T11:14:12.874Z,21.79
2022-10-16T11:16:55.083Z,22.09
2022-10-16T11:19:50.878Z,21.95
2022-10-16T11:22:24.491Z,21.65
2022-10-16T11:25:00.928Z,21.47
2022-10-16T11:27:43.804Z,21.31
2022-10-16T11:30:28.963Z,21.74
2022-10-16T11:33:07.016Z,21.70
2022-10-16T11:35:48.018Z,21.58
2022-10-16T11:38:31.650Z,21.68
2022-10-16T11:41:10.934Z,21.64
2022-10-16T11:43:50.908Z,21.67
2022-10-16T11:46:25.692Z,21.74
2022-10-16T11:49:02.043Z,21.88
2022-10-16T11:51:40.991Z,21.97
2022-10-16T11:54:53.035Z,22.37
2022-10-16T11:57:34.141Z,22.83
2022-10-16T12:00:08.615Z,22.65
2022-10-16T12:02:51.574Z,22.33
2022-10-16T12:05:24.923Z,23.01
2022-10-16T12:08:12.154Z,24.26
2022-10-16T12:10:41.059Z,24.08
2022-10-16T12:13:39.667Z,23.53
2022-10-16T12:16:15.225Z,22.98
2022-10-16T12:18:46.449Z,22.59
2022-10-16T12:21:16.767Z,22.27
2022-10-16T12:23:55.043Z,22.09
2022-10-16T12:26:30.706Z,22.21
2022-10-16T12:29:13.013Z,22.06
2022-10-16T12:31:54.892Z,22.01
2022-10-16T12:34:44.534Z,21.83
2022-10-16T12:37:14.230Z,21.62
2022-10-16T12:39:41.748Z,21.61
2022-10-16T12:42:24.444Z,21.83
2022-10-16T12:44:51.524Z,21.92
2022-10-16T12:47:24.593Z,21.92
2022-10-16T12:49:55.745Z,22.15
2022-10-16T12:52:34.436Z,22.28
2022-10-16T12:55:02.002Z,22.24
2022-10-16T12:57:39.258Z,22.31
2022-10-16T13:00:46.178Z,22.13
2022-10-16T13:03:42.271Z,21.90
2022-10-16T13:06:31.113Z,21.79
2022-10-16T13:09:34.877Z,21.58
2022-10-16T13:12:10.753Z,21.38
2022-10-16T13:14:52.728Z,21.34
2022-10-16T13:17:29.659Z,21.27
2022-10-16T13:20:25.877Z,21.26
2022-10-16T13:23:26.058Z,21.27
2022-10-16T13:26:14.072Z,21.21
2022-10-16T13:28:41.121Z,21.18
2022-10-16T13:31:18.515Z,21.22
2022-10-16T13:33:51.641Z,21.16
2022-10-16T13:36:23.989Z,21.13
2022-10-16T13:39:02.344Z,21.11
2022-10-16T13:41:28.880Z,21.04
2022-10-16T13:43:57.592Z,21.02
2022-10-16T13:46:26.127Z,20.87
2022-10-16T13:49:03.308Z,20.76
2022-10-16T13:51:31.786Z,20.68
2022-10-16T13:53:59.658Z,20.70
2022-10-16T13:56:33.242Z,20.74
2022-10-16T13:59:08.016Z,20.78
2022-10-16T14:01:41.101Z,20.78
2022-10-16T14:04:14.628Z,20.69
2022-10-16T14:06:46.321Z,20.68
2022-10-16T14:09:22.792Z,20.73
2022-10-16T14:11:52.595Z,20.77
2022-10-16T14:14:23.131Z,20.67
2022-10-16T14:16:50.150Z,20.71
2022-10-16T14:19:27.054Z,20.75
2022-10-16T14:21:54.507Z,20.72
2022-10-16T14:24:32.135Z,20.65
2022-10-16T14:26:59.191Z,20.57
2022-10-16T14:29:28.484Z,20.62
2022-10-16T14:32:03.252Z,20.43
2022-10-16T14:34:35.831Z,20.38
2022-10-16T14:39:35.310Z,20.31
2022-10-16T14:42:01.913Z,20.35
2022-10-16T14:44:34.147Z,20.23
2022-10-16T14:47:10.435Z,20.08
2022-10-16T14:49:37.224Z,19.99
2022-10-16T14:52:09.577Z,19.94
2022-10-16T14:54:36.164Z,19.84
2022-10-16T14:57:02.923Z,19.79
2022-10-16T14:59:40.687Z,19.69
2022-10-16T15:02:24.172Z,19.48
2022-10-16T15:04:51.132Z,19.39
2022-10-16T15:07:18.017Z,19.43
2022-10-16T15:09:48.239Z,19.30
2022-10-16T15:12:16.842Z,19.27
2022-10-16T15:14:43.502Z,19.33
2022-10-16T15:17:13.424Z,19.38
2022-10-16T15:19:41.345Z,19.58
2022-10-16T15:22:10.786Z,19.35
2022-10-16T15:24:37.514Z,19.17
2022-10-16T15:27:04.069Z,19.13
2022-10-16T15:29:30.675Z,18.73
2022-10-16T15:31:57.214Z,18.60
2022-10-16T15:34:23.884Z,18.28
2022-10-16T15:36:50.374Z,18.04
2022-10-16T15:39:19.976Z,17.93
2022-10-16T15:41:54.617Z,17.94
2022-10-16T15:44:24.093Z,17.71
2022-10-16T15:46:50.678Z,17.68
2022-10-16T15:49:17.184Z,17.57
2022-10-16T15:51:43.811Z,17.40
2022-10-16T15:54:10.520Z,17.23
2022-10-16T15:56:38.299Z,17.16
2022-10-16T15:59:06.002Z,17.37
2022-10-16T16:01:35.359Z,17.29
2022-10-16T16:04:07.468Z,17.20
2022-10-16T16:06:45.671Z,17.06
2022-10-16T16:09:13.260Z,16.97
2022-10-16T16:11:39.991Z,16.87
2022-10-16T16:14:07.948Z,16.97
2022-10-16T16:16:39.012Z,16.78
2022-10-16T16:19:10.695Z,16.74
2022-10-16T16:21:38.492Z,16.89
2022-10-16T16:24:09.389Z,16.48
2022-10-16T16:26:40.408Z,16.36
2022-10-16T16:29:08.009Z,16.32
2022-10-16T16:31:35.813Z,16.28
2022-10-16T16:34:02.647Z,16.38
2022-10-16T16:36:29.228Z,16.48
2022-10-16T16:38:55.804Z,16.69
2022-10-16T16:41:26.171Z,16.57
2022-10-16T16:43:53.680Z,16.48
2022-10-16T16:46:20.923Z,16.39
2022-10-16T16:48:48.049Z,16.54
2022-10-16T16:51:19.131Z,16.46
2022-10-16T16:53:49.047Z,16.46
2022-10-16T16:56:16.144Z,16.24
2022-10-16T16:58:45.655Z,16.18
2022-10-16T17:01:20.615Z,16.15
2022-10-16T17:03:52.932Z,16.14
2022-10-16T17:06:21.853Z,15.88
2022-10-16T17:08:49.527Z,15.91
2022-10-16T17:11:25.157Z,15.82
2022-10-16T17:13:56.721Z,15.64
2022-10-16T17:16:30.845Z,15.74
2022-10-16T17:19:00.751Z,15.51
2022-10-16T17:21:28.131Z,15.46
2022-10-16T17:23:54.746Z,15.61
2022-10-16T17:26:21.327Z,15.23
2022-10-16T17:28:51.767Z,15.35
2022-10-16T17:31:21.351Z,15.26
2022-10-16T17:33:47.920Z,15.29
2022-10-16T17:36:15.086Z,15.23
2022-10-16T17:38:42.753Z,15.17
2022-10-16T17:41:23.284Z,15.08
2022-10-16T17:43:51.137Z,15.05
2022-10-16T17:46:20.345Z,15.25
2022-10-16T17:48:49.788Z,15.53
2022-10-16T17:51:19.459Z,15.58
2022-10-16T17:53:54.800Z,15.37
2022-10-16T17:56:26.085Z,15.36
2022-10-16T17:58:55.208Z,15.26
2022-10-16T18:01:27.442Z,15.21
2022-10-16T18:03:57.129Z,15.07
2022-10-16T18:06:24.109Z,15.13
2022-10-16T18:08:52.104Z,14.96
2022-10-16T18:11:19.914Z,14.89
2022-10-16T18:13:46.746Z,14.78
2022-10-16T18:16:15.509Z,14.83
2022-10-16T18:18:44.715Z,14.80
2022-10-16T18:21:13.174Z,14.69
2022-10-16T18:23:40.355Z,14.61
2022-10-16T18:26:08.149Z,14.64
2022-10-16T18:28:35.137Z,14.69
2022-10-16T18:31:04.611Z,14.86
2022-10-16T18:33:32.158Z,14.90
2022-10-16T18:36:07.974Z,14.91
2022-10-16T18:38:36.167Z,15.05
2022-10-16T18:41:05.559Z,14.98
2022-10-16T18:43:33.410Z,15.02
2022-10-16T18:46:02.446Z,15.09
2022-10-16T18:48:30.798Z,15.15
2022-10-16T18:51:17.596Z,15.18
2022-10-16T18:53:46.475Z,14.98
2022-10-16T18:56:15.093Z,14.99
2022-10-16T18:58:43.320Z,14.96
2022-10-16T19:01:16.600Z,14.96
2022-10-16T19:03:43.854Z,14.69
2022-10-16T19:06:14.336Z,14.56
2022-10-16T19:08:41.313Z,14.57
2022-10-16T19:11:17.511Z,14.38
2022-10-16T19:13:45.166Z,14.28
2022-10-16T19:16:21.969Z,14.18
2022-10-16T19:18:51.476Z,14.17
2022-10-16T19:21:18.981Z,14.21
2022-10-16T19:23:46.943Z,14.24
2022-10-16T19:26:18.760Z,14.31
2022-10-16T19:28:46.066Z,14.30
2022-10-16T19:31:15.863Z,14.30
2022-10-16T19:33:43.410Z,14.37
2022-10-16T19:36:13.390Z,14.42
2022-10-16T19:38:40.761Z,14.43
2022-10-16T19:41:17.151Z,14.31
2022-10-16T19:43:44.570Z,14.44
2022-10-16T19:46:16.475Z,14.59
2022-10-16T19:48:43.637Z,14.55
2022-10-16T19:51:16.531Z,14.48
2022-10-16T19:53:43.345Z,14.52
2022-10-16T19:56:18.682Z,14.63
2022-10-16T19:58:46.174Z,14.55
2022-10-16T20:01:14.716Z,14.56
2022-10-16T20:03:44.291Z,14.75
2022-10-16T20:06:10.984Z,14.76
2022-10-16T20:08:39.133Z,14.62
2022-10-16T20:11:10.279Z,14.55
2022-10-16T20:13:39.927Z,14.51
2022-10-16T20:16:10.369Z,14.48
2022-10-16T20:18:37.536Z,14.51
2022-10-16T20:21:16.473Z,14.58
2022-10-16T20:23:43.223Z,14.58
2022-10-16T20:26:12.756Z,14.57
2022-10-16T20:28:41.255Z,14.74
2022-10-16T20:31:11.990Z,14.69
2022-10-16T20:33:38.714Z,14.55
2022-10-16T20:36:10.164Z,14.55
2022-10-16T20:38:37.162Z,14.48
2022-10-16T20:41:04.775Z,14.57
2022-10-16T20:43:31.695Z,14.66
2022-10-16T20:46:09.092Z,14.66
2022-10-16T20:48:36.719Z,14.70
2022-10-16T20:51:29.932Z,14.64
2022-10-16T20:53:59.049Z,14.52
2022-10-16T20:56:28.235Z,14.48
2022-10-16T20:58:54.800Z,14.31
2022-10-16T21:01:23.631Z,14.24
2022-10-16T21:03:56.186Z,14.07
2022-10-16T21:06:23.462Z,14.03
2022-10-16T21:08:50.079Z,14.06
2022-10-16T21:11:22.606Z,13.87
2022-10-16T21:13:51.415Z,13.81
2022-10-16T21:16:18.023Z,13.74
2022-10-16T21:18:45.047Z,13.66
2022-10-16T21:21:38.238Z,13.61
2022-10-16T21:24:06.085Z,13.71
2022-10-16T21:26:33.005Z,13.57
2022-10-16T21:29:02.143Z,13.41
2022-10-16T21:31:28.897Z,13.32
2022-10-16T21:33:56.582Z,13.36
2022-10-16T21:36:25.992Z,13.41
2022-10-16T21:38:53.242Z,13.22
2022-10-16T21:41:28.808Z,12.98
2022-10-16T21:43:56.780Z,12.96
2022-10-16T21:46:26.457Z,12.99
2022-10-16T21:48:54.517Z,12.93
2022-10-16T21:51:25.378Z,13.13
2022-10-16T21:53:51.941Z,13.02
2022-10-16T21:56:18.584Z,12.80
2022-10-16T21:58:45.721Z,12.69
2022-10-16T22:01:15.172Z,12.71
2022-10-16T22:03:42.010Z,12.93
2022-10-16T22:06:10.525Z,12.85
2022-10-16T22:08:38.608Z,12.95
2022-10-16T22:11:11.508Z,12.80
2022-10-16T22:13:39.101Z,12.71
2022-10-16T22:16:06.275Z,12.77
2022-10-16T22:18:33.665Z,12.80
2022-10-16T22:21:01.339Z,12.77
2022-10-16T22:23:27.895Z,12.79
2022-10-16T22:26:02.707Z,12.68
2022-10-16T22:28:29.390Z,12.68
2022-10-16T22:30:56.118Z,12.62
2022-10-16T22:33:22.731Z,12.60
2022-10-16T22:35:49.366Z,12.66
2022-10-16T22:38:15.943Z,12.57
2022-10-16T22:40:42.538Z,12.61
2022-10-16T22:43:09.083Z,12.68
2022-10-16T22:45:36.373Z,12.71
2022-10-16T22:48:04.352Z,12.77
2022-10-16T22:50:32.429Z,12.63
2022-10-16T22:52:59.053Z,12.57
2022-10-16T22:55:25.712Z,12.70
2022-10-16T22:57:55.202Z,12.57
2022-10-16T23:00:21.805Z,12.38
2022-10-16T23:02:48.543Z,12.51
2022-10-16T23:05:15.203Z,12.48
2022-10-16T23:07:41.995Z,12.51
2022-10-16T23:10:09.209Z,12.48
2022-10-16T23:12:36.333Z,12.47
2022-10-16T23:15:04.046Z,12.39
2022-10-16T23:17:30.594Z,12.38
2022-10-16T23:19:57.193Z,12.39
2022-10-16T23:22:23.710Z,12.26
2022-10-16T23:24:50.290Z,12.28
2022-10-16T23:27:16.838Z,12.37
2022-10-16T23:29:43.400Z,12.46
2022-10-16T23:32:09.979Z,12.46
2022-10-16T23:34:36.510Z,12.46
2022-10-16T23:37:03.806Z,12.49
2022-10-16T23:39:30.344Z,12.45
2022-10-16T23:41:56.922Z,12.56
2022-10-16T23:44:23.493Z,12.48
2022-10-16T23:46:50.230Z,12.47
2022-10-16T23:49:16.837Z,12.62
2022-10-16T23:51:43.399Z,12.62
2022-10-16T23:54:09.903Z,12.54
2022-10-16T23:56:36.515Z,12.40
2022-10-16T23:59:03.251Z,12.24
